Time;durP1;ratioP1;P1;durP2;ratioP2;P2;SDS_P1;SDS_P2;PMS_P1;PMS_P2;Temp;Humidity;BMP_temperature;BMP_pressure;BME280_temperature;BME280_humidity;BME280_pressure;Samples;Min_cycle;Max_cycle;Signal;HPM_P1;HPM_P2
2023/12/26 00:00:30;;;;;;;23.33;13.95;;;;;;;8.39;56.16;94740.22;4182012;28;20075;-69
2023/12/26 00:02:31;;;;;;;21.83;14.30;;;;;;;8.42;56.30;94742.56;4191335;28;20091;-69
2023/12/26 00:04:33;;;;;;;23.83;13.27;;;;;;;8.48;56.14;94747.22;4192724;28;20056;-69
2023/12/26 00:06:36;;;;;;;29.98;16.85;;;;;;;8.52;56.45;94748.56;4194964;28;20416;-66
2023/12/26 00:08:38;;;;;;;29.40;16.50;;;;;;;8.57;55.95;94751.56;4195002;28;20089;-68
2023/12/26 00:10:40;;;;;;;29.83;16.60;;;;;;;8.59;55.98;94748.81;4185555;28;20118;-70
2023/12/26 00:12:42;;;;;;;28.85;15.98;;;;;;;8.61;55.37;94744.28;4195099;28;20057;-68
2023/12/26 00:14:44;;;;;;;31.27;17.27;;;;;;;8.60;54.77;94750.44;4184218;28;20041;-70
2023/12/26 00:16:46;;;;;;;27.15;17.25;;;;;;;8.60;55.02;94748.69;4186829;28;20142;-67
2023/12/26 00:18:48;;;;;;;27.88;16.55;;;;;;;8.55;54.50;94748.28;4188690;28;20044;-68
2023/12/26 00:20:51;;;;;;;32.35;17.42;;;;;;;8.19;55.21;94753.38;4195120;28;20044;-67
2023/12/26 00:22:53;;;;;;;27.67;16.42;;;;;;;7.62;58.13;94754.34;4187600;28;20057;-70
2023/12/26 00:24:55;;;;;;;30.05;17.13;;;;;;;7.53;58.61;94763.81;4193076;28;20114;-70
2023/12/26 00:26:57;;;;;;;29.25;16.92;;;;;;;7.59;58.39;94765.84;4193627;28;20423;-70
2023/12/26 00:28:59;;;;;;;29.67;16.15;;;;;;;7.72;58.33;94763.78;4184446;28;20126;-69
2023/12/26 00:31:01;;;;;;;30.33;16.92;;;;;;;7.88;57.21;94763.19;4188905;28;20048;-69
2023/12/26 00:33:03;;;;;;;31.65;18.33;;;;;;;8.03;57.19;94762.75;4183153;28;20056;-68
2023/12/26 00:35:06;;;;;;;28.27;17.88;;;;;;;8.16;56.56;94761.47;4168880;28;20495;-68
2023/12/26 00:37:09;;;;;;;29.90;17.38;;;;;;;8.17;56.53;94765.72;4194701;28;20091;-69
2023/12/26 00:39:11;;;;;;;31.42;18.30;;;;;;;8.05;56.92;94777.28;4187927;28;20049;-70
2023/12/26 00:41:14;;;;;;;33.60;18.02;;;;;;;7.99;57.04;94768.22;4193040;28;20044;-69
2023/12/26 00:43:16;;;;;;;29.88;17.33;;;;;;;8.05;56.49;94772.06;4176479;28;20044;-68
2023/12/26 00:45:18;;;;;;;37.95;21.63;;;;;;;8.07;56.83;94774.56;4197024;28;20166;-68
2023/12/26 00:47:20;;;;;;;33.60;19.05;;;;;;;8.08;56.73;94776.19;4180209;28;20475;-69
2023/12/26 00:49:22;;;;;;;44.33;23.52;;;;;;;8.10;56.88;94775.06;4193010;28;20101;-70
2023/12/26 00:51:25;;;;;;;48.55;25.67;;;;;;;8.14;56.31;94781.66;4191702;28;20076;-69
2023/12/26 00:53:26;;;;;;;40.60;21.88;;;;;;;8.09;56.52;94783.06;4193862;28;20562;-70
2023/12/26 00:55:29;;;;;;;29.88;17.75;;;;;;;7.99;56.03;94781.28;4192052;28;20156;-68
2023/12/26 00:57:33;;;;;;;28.77;16.83;;;;;;;7.94;56.76;94787.91;4190081;28;20059;-70
2023/12/26 00:59:35;;;;;;;26.90;17.08;;;;;;;7.87;56.32;94786.78;4192179;28;20052;-69
2023/12/26 01:01:36;;;;;;;28.38;16.67;;;;;;;7.80;56.37;94794.38;4176009;28;20108;-68
2023/12/26 01:03:38;;;;;;;27.83;16.10;;;;;;;7.86;56.55;94788.59;4192402;28;20056;-69
2023/12/26 01:05:40;;;;;;;27.85;15.73;;;;;;;7.89;56.59;94796.13;4190052;28;20049;-67
2023/12/26 01:07:42;;;;;;;26.17;15.07;;;;;;;7.92;56.32;94803.69;4190540;28;20052;-69
2023/12/26 01:09:44;;;;;;;29.77;17.40;;;;;;;7.98;56.72;94802.31;4186330;28;20585;-68
2023/12/26 01:11:46;;;;;;;29.35;16.33;;;;;;;8.06;56.23;94791.16;4184064;28;20052;-68
2023/12/26 01:13:48;;;;;;;28.20;16.90;;;;;;;8.07;55.94;94796.25;4189430;28;20043;-69
2023/12/26 01:15:50;;;;;;;28.98;16.42;;;;;;;8.13;56.32;94792.22;4185666;28;20090;-69
2023/12/26 01:17:51;;;;;;;26.95;15.13;;;;;;;8.14;56.48;94789.47;4189951;28;20506;-69
2023/12/26 01:19:53;;;;;;;25.35;15.07;;;;;;;8.15;55.92;94787.69;4171008;28;20056;-69
2023/12/26 01:21:55;;;;;;;27.13;17.27;;;;;;;8.18;56.05;94788.25;4191939;28;20040;-69
2023/12/26 01:23:57;;;;;;;27.20;16.13;;;;;;;8.11;56.30;94787.16;4186280;28;20045;-68
2023/12/26 01:25:59;;;;;;;28.25;17.45;;;;;;;8.06;56.61;94789.34;4189933;28;20095;-70
2023/12/26 01:28:01;;;;;;;29.52;16.90;;;;;;;7.98;56.58;94791.88;4201686;28;20099;-70
2023/12/26 01:30:04;;;;;;;29.50;16.98;;;;;;;7.88;57.66;94791.06;4188180;28;20072;-69
2023/12/26 01:32:06;;;;;;;33.33;17.05;;;;;;;7.77;57.76;94792.03;4190590;28;20049;-68
2023/12/26 01:34:08;;;;;;;26.98;16.60;;;;;;;7.70;57.67;94789.19;4187117;28;20040;-69
2023/12/26 01:36:10;;;;;;;26.73;17.10;;;;;;;7.78;57.34;94783.25;4173238;28;20427;-69
2023/12/26 01:38:12;;;;;;;28.92;16.67;;;;;;;7.84;57.04;94785.31;4167544;28;20042;-69
2023/12/26 01:40:15;;;;;;;28.02;16.77;;;;;;;7.89;57.01;94790.09;4182531;28;20077;-70
2023/12/26 01:42:17;;;;;;;25.88;16.27;;;;;;;7.94;56.77;94790.50;4190866;28;20056;-69
2023/12/26 01:44:20;;;;;;;26.70;15.98;;;;;;;7.78;56.69;94789.28;4183263;28;20041;-68
2023/12/26 01:46:22;;;;;;;26.83;15.70;;;;;;;7.80;57.24;94792.56;4187096;28;20057;-69
2023/12/26 01:48:24;;;;;;;27.48;15.73;;;;;;;7.84;57.18;94780.09;4174953;28;20491;-70
2023/12/26 01:50:27;;;;;;;25.43;16.03;;;;;;;7.88;57.29;94785.84;4180164;28;20147;-66
2023/12/26 01:52:29;;;;;;;25.63;16.20;;;;;;;7.88;57.98;94791.06;4164138;28;20712;-69
2023/12/26 01:54:33;;;;;;;21.83;14.60;;;;;;;7.89;57.24;94785.69;4192051;28;20079;-68
2023/12/26 01:56:35;;;;;;;27.90;14.95;;;;;;;7.84;56.91;94790.50;4191403;28;20087;-69
2023/12/26 01:58:38;;;;;;;23.67;15.07;;;;;;;7.85;57.06;94788.72;4191560;28;20049;-68
2023/12/26 02:00:40;;;;;;;23.83;13.55;;;;;;;7.78;57.04;94794.50;4197663;28;20127;-68
2023/12/26 02:02:43;;;;;;;22.17;12.55;;;;;;;7.80;57.23;94795.19;4181875;28;20056;-68
2023/12/26 02:04:45;;;;;;;22.20;12.95;;;;;;;7.88;56.72;94789.28;4168187;28;20090;-66
2023/12/26 02:06:48;;;;;;;22.85;12.52;;;;;;;7.88;56.70;94783.25;4170257;28;20044;-70
2023/12/26 02:08:51;;;;;;;21.10;12.07;;;;;;;7.93;56.43;94783.63;4189845;28;20426;-67
2023/12/26 02:10:53;;;;;;;21.00;12.32;;;;;;;7.93;56.34;94781.84;4184614;28;20060;-68
2023/12/26 02:12:55;;;;;;;21.45;11.95;;;;;;;7.93;56.91;94781.84;4192527;28;20132;-69
2023/12/26 02:14:59;;;;;;;19.70;11.52;;;;;;;8.01;56.25;94781.16;4187799;28;20120;-69
2023/12/26 02:17:04;;;;;;;26.52;12.15;;;;;;;8.02;56.24;94790.59;4170016;28;20195;-68
2023/12/26 02:19:06;;;;;;;19.75;11.57;;;;;;;7.99;56.07;94783.88;4171564;28;20111;-69
2023/12/26 02:21:08;;;;;;;21.77;12.25;;;;;;;7.90;56.57;94789.97;4189405;28;20048;-70
2023/12/26 02:23:10;;;;;;;17.60;9.63;;;;;;;7.87;56.89;94781.59;4184688;28;20053;-70
2023/12/26 02:25:12;;;;;;;21.73;11.35;;;;;;;7.93;56.96;94788.84;4179948;28;20121;-69
2023/12/26 02:27:19;;;;;;;20.48;10.38;;;;;;;7.77;56.27;94787.66;4182411;28;20524;-69
2023/12/26 02:29:22;;;;;;;20.33;11.98;;;;;;;7.28;58.75;94784.25;4190697;28;20084;-69
2023/12/26 02:31:24;;;;;;;22.65;11.95;;;;;;;7.33;58.90;94791.66;4190178;28;20045;-69
2023/12/26 02:33:26;;;;;;;22.30;11.70;;;;;;;7.32;58.73;94784.81;4173481;28;20057;-69
2023/12/26 02:35:29;;;;;;;20.70;12.15;;;;;;;7.38;58.32;94785.06;4179053;28;20090;-70
2023/12/26 02:37:31;;;;;;;19.63;11.30;;;;;;;7.47;58.76;94786.03;4168341;28;20124;-68
2023/12/26 02:39:34;;;;;;;19.05;12.45;;;;;;;7.54;57.99;94789.72;4187493;28;20138;-71
2023/12/26 02:41:36;;;;;;;16.55;9.88;;;;;;;7.66;58.33;94794.78;4189460;28;20048;-70
2023/12/26 02:43:38;;;;;;;18.27;10.68;;;;;;;7.70;58.14;94793.53;4183317;28;20095;-69
2023/12/26 02:45:41;;;;;;;19.60;11.82;;;;;;;7.66;57.66;94800.00;4189646;28;20079;-68
2023/12/26 02:47:42;;;;;;;20.75;12.00;;;;;;;7.50;57.78;94797.97;4182058;28;20352;-68
2023/12/26 02:49:44;;;;;;;21.48;11.93;;;;;;;7.43;58.88;94796.88;4189390;28;20071;-71
2023/12/26 02:51:46;;;;;;;82.82;46.60;;;;;;;7.36;58.83;94794.81;4183832;28;20048;-68
2023/12/26 02:53:51;;;;;;;73.15;38.58;;;;;;;7.39;59.02;94796.31;4181407;28;20455;-69
2023/12/26 02:55:53;;;;;;;34.15;20.10;;;;;;;7.31;58.47;94790.97;4180013;28;20445;-68
2023/12/26 02:57:55;;;;;;;30.50;18.05;;;;;;;6.79;60.15;94804.19;4192564;28;20071;-68
2023/12/26 02:59:57;;;;;;;23.88;14.25;;;;;;;6.78;60.78;94810.34;4185779;28;20133;-69
2023/12/26 03:01:59;;;;;;;31.05;14.10;;;;;;;6.72;61.22;94805.69;4189181;28;20056;-69
2023/12/26 03:04:02;;;;;;;22.10;12.70;;;;;;;6.68;61.16;94801.69;4191395;28;20091;-65
2023/12/26 03:06:04;;;;;;;20.00;12.98;;;;;;;6.34;62.01;94804.56;4202012;28;20044;-67
2023/12/26 03:08:06;;;;;;;23.13;12.63;;;;;;;6.21;62.49;94801.38;4173254;28;20553;-67
2023/12/26 03:10:09;;;;;;;19.92;12.68;;;;;;;6.38;62.81;94811.16;4190630;28;20365;-66
2023/12/26 03:12:11;;;;;;;17.88;12.38;;;;;;;6.56;61.33;94814.81;4174715;28;20102;-68
2023/12/26 03:14:13;;;;;;;23.20;12.18;;;;;;;6.73;61.24;94812.53;4192132;28;20052;-68
2023/12/26 03:16:15;;;;;;;21.40;12.00;;;;;;;6.79;60.96;94806.78;4172061;28;20434;-68
2023/12/26 03:18:17;;;;;;;22.25;12.35;;;;;;;6.90;60.48;94805.84;4183585;28;20124;-68
2023/12/26 03:20:19;;;;;;;20.08;11.70;;;;;;;6.97;60.36;94810.41;4165794;28;20115;-69
2023/12/26 03:22:21;;;;;;;19.27;11.45;;;;;;;7.04;60.04;94809.88;4181184;28;20122;-67
2023/12/26 03:24:23;;;;;;;24.33;11.45;;;;;;;7.03;59.74;94803.81;4190291;28;20044;-69
2023/12/26 03:26:25;;;;;;;19.25;11.63;;;;;;;7.08;60.02;94817.28;4190299;28;20056;-69
2023/12/26 03:28:27;;;;;;;23.17;11.32;;;;;;;7.08;59.70;94812.06;4191511;28;20437;-69
2023/12/26 03:30:30;;;;;;;17.17;11.30;;;;;;;7.10;59.59;94811.94;4191595;28;20084;-68
2023/12/26 03:32:32;;;;;;;19.45;11.20;;;;;;;7.11;59.49;94818.78;4191580;28;20106;-68
2023/12/26 03:34:34;;;;;;;19.08;10.93;;;;;;;7.07;59.60;94820.81;4190693;28;20060;-68
2023/12/26 03:36:42;;;;;;;18.40;11.52;;;;;;;7.14;59.65;94821.09;4165242;28;20168;-67
2023/12/26 03:38:45;;;;;;;17.67;10.65;;;;;;;7.13;59.04;94815.06;4195365;28;20135;-68
2023/12/26 03:40:48;;;;;;;15.88;10.70;;;;;;;7.14;59.15;94815.91;4189987;28;20045;-70
2023/12/26 03:42:50;;;;;;;19.55;11.32;;;;;;;7.13;59.03;94814.25;4190484;28;20052;-69
2023/12/26 03:44:52;;;;;;;20.15;11.07;;;;;;;7.13;59.26;94816.88;4196787;28;20064;-66
2023/12/26 03:46:54;;;;;;;17.25;11.48;;;;;;;6.97;59.42;94823.44;4191215;28;20048;-69
2023/12/26 03:48:55;;;;;;;18.67;11.35;;;;;;;6.86;59.96;94820.09;4182239;28;20052;-70
2023/12/26 03:50:57;;;;;;;23.52;13.48;;;;;;;6.92;59.79;94815.16;4194311;28;20056;-69
2023/12/26 03:52:59;;;;;;;23.40;11.95;;;;;;;6.99;59.97;94818.09;4190097;28;20419;-70
2023/12/26 03:55:02;;;;;;;21.13;12.85;;;;;;;7.08;59.29;94819.06;4177353;28;20037;-70
2023/12/26 03:57:04;;;;;;;18.52;11.80;;;;;;;7.13;59.19;94822.91;4190701;28;20568;-67
2023/12/26 03:59:07;;;;;;;19.58;11.57;;;;;;;7.15;59.06;94817.56;4192973;28;20689;-69
2023/12/26 04:01:11;;;;;;;23.80;11.82;;;;;;;7.17;59.24;94824.28;4187385;28;20062;-68
2023/12/26 04:03:13;;;;;;;20.27;12.50;;;;;;;7.15;59.13;94818.38;4192100;28;20104;-69
2023/12/26 04:05:15;;;;;;;20.88;11.95;;;;;;;7.10;59.36;94817.97;4193785;28;20405;-68
2023/12/26 04:07:17;;;;;;;17.05;11.88;;;;;;;7.11;59.07;94811.78;4175880;28;20533;-67
2023/12/26 04:09:20;;;;;;;20.00;12.27;;;;;;;7.03;59.27;94821.22;4189565;28;20055;-67
2023/12/26 04:11:22;;;;;;;20.98;11.98;;;;;;;7.02;59.59;94824.81;4192411;28;20049;-69
2023/12/26 04:13:24;;;;;;;23.63;12.30;;;;;;;6.85;59.67;94821.88;4185316;28;20048;-69
2023/12/26 04:15:26;;;;;;;22.63;12.25;;;;;;;6.72;60.20;94818.69;4189840;28;20044;-69
2023/12/26 04:17:28;;;;;;;22.70;12.43;;;;;;;6.70;60.38;94826.63;4185366;28;20061;-69
2023/12/26 04:19:30;;;;;;;25.45;13.30;;;;;;;6.28;61.00;94831.97;4191703;28;20048;-68
2023/12/26 04:21:32;;;;;;;20.38;13.00;;;;;;;6.17;61.68;94833.81;4195448;28;20519;-67
2023/12/26 04:23:34;;;;;;;25.65;13.70;;;;;;;6.18;61.85;94835.47;4194689;28;20075;-68
2023/12/26 04:25:36;;;;;;;19.60;12.75;;;;;;;6.27;61.95;94832.91;4190434;28;20464;-67
2023/12/26 04:27:38;;;;;;;24.98;14.75;;;;;;;6.35;61.67;94832.25;4170690;28;20049;-68
2023/12/26 04:29:40;;;;;;;21.98;13.13;;;;;;;6.40;61.05;94837.88;4192430;28;20103;-69
2023/12/26 04:31:42;;;;;;;24.50;14.05;;;;;;;6.42;61.62;94845.56;4190282;28;20075;-68
2023/12/26 04:33:45;;;;;;;22.83;13.85;;;;;;;6.47;61.40;94836.41;4187232;28;20106;-69
2023/12/26 04:35:47;;;;;;;25.35;13.30;;;;;;;6.51;61.49;94840.41;4194851;28;20051;-68
2023/12/26 04:37:49;;;;;;;23.48;14.52;;;;;;;6.54;60.97;94841.94;4197319;28;20044;-68
2023/12/26 04:39:51;;;;;;;21.98;13.30;;;;;;;6.56;61.38;94838.25;4190705;28;20074;-69
2023/12/26 04:41:53;;;;;;;20.02;12.27;;;;;;;6.62;61.16;94846.47;4193212;28;20092;-69
2023/12/26 04:43:54;;;;;;;23.38;13.55;;;;;;;6.64;61.17;94847.97;4186850;28;20130;-68
2023/12/26 04:45:56;;;;;;;22.63;13.52;;;;;;;6.64;61.19;94845.38;4182444;28;20152;-69
2023/12/26 04:47:58;;;;;;;21.27;13.20;;;;;;;6.68;61.12;94845.94;4195828;28;20095;-69
2023/12/26 04:50:00;;;;;;;21.92;12.90;;;;;;;6.68;60.91;94843.34;4195146;28;20169;-69
2023/12/26 04:52:03;;;;;;;20.48;13.00;;;;;;;6.67;60.57;94852.94;4174425;28;20048;-68
2023/12/26 04:54:05;;;;;;;19.45;13.30;;;;;;;6.71;60.89;94843.06;4194379;28;20643;-70
2023/12/26 04:56:07;;;;;;;22.88;13.35;;;;;;;6.72;61.04;94842.13;4183884;28;20045;-69
2023/12/26 04:58:09;;;;;;;22.90;13.15;;;;;;;6.72;60.68;94855.16;4190205;28;20049;-70
2023/12/26 05:00:11;;;;;;;18.92;12.80;;;;;;;6.71;61.04;94851.72;4191681;28;20434;-69
2023/12/26 05:02:14;;;;;;;27.80;14.35;;;;;;;6.64;61.09;94847.97;4192328;28;20044;-69
2023/12/26 05:04:16;;;;;;;23.33;13.13;;;;;;;6.54;61.06;94842.75;4192605;28;20051;-68
2023/12/26 05:06:19;;;;;;;21.98;15.13;;;;;;;6.41;61.10;94852.56;4187824;28;20167;-69
2023/12/26 05:08:21;;;;;;;28.92;16.67;;;;;;;6.00;61.75;94843.84;4191948;28;20117;-69
2023/12/26 05:10:23;;;;;;;25.98;16.77;;;;;;;5.86;62.77;94850.16;4187961;28;20083;-69
2023/12/26 05:12:27;;;;;;;31.38;18.23;;;;;;;5.88;62.66;94850.03;4181234;28;20114;-69
2023/12/26 05:14:29;;;;;;;27.65;17.48;;;;;;;5.87;62.62;94848.38;4173887;28;20057;-71
2023/12/26 05:16:31;;;;;;;31.83;19.52;;;;;;;5.84;63.84;94844.25;4181308;28;20068;-69
2023/12/26 05:18:33;;;;;;;29.58;20.08;;;;;;;5.96;64.81;94852.84;4192982;28;20056;-70
2023/12/26 05:20:35;;;;;;;33.42;20.27;;;;;;;5.97;63.15;94844.09;4185715;28;20052;-69
2023/12/26 05:22:36;;;;;;;30.15;19.95;;;;;;;5.97;63.24;94844.09;4190006;28;20048;-70
2023/12/26 05:24:39;;;;;;;31.67;18.98;;;;;;;6.10;63.06;94834.31;4191807;28;20036;-69
2023/12/26 05:26:52;;;;;;;27.77;18.27;;;;;;;6.20;62.13;94838.75;4182910;28;20055;-69
2023/12/26 05:28:53;;;;;;;30.75;17.58;;;;;;;6.26;62.11;94833.00;4190537;28;20114;-69
2023/12/26 05:30:56;;;;;;;29.05;16.52;;;;;;;6.31;62.02;94834.28;4188780;28;20135;-69
2023/12/26 05:32:59;;;;;;;26.77;15.90;;;;;;;6.32;62.13;94837.72;4190961;28;20044;-71
2023/12/26 05:35:02;;;;;;;25.08;16.08;;;;;;;6.34;62.04;94843.59;4183847;28;20044;-70
2023/12/26 05:37:03;;;;;;;29.30;15.43;;;;;;;6.31;62.39;94833.47;4174377;28;20049;-68
2023/12/26 05:39:07;;;;;;;25.75;16.05;;;;;;;6.34;62.21;94851.41;4190848;28;20049;-69
2023/12/26 05:41:09;;;;;;;23.13;15.88;;;;;;;6.37;62.01;94843.38;4185811;28;20095;-71
2023/12/26 05:43:11;;;;;;;23.50;15.00;;;;;;;6.37;61.83;94845.97;4186967;28;20064;-71
2023/12/26 05:45:13;;;;;;;20.15;14.20;;;;;;;6.40;61.62;94835.28;4193252;28;20116;-68
2023/12/26 05:47:15;;;;;;;21.40;14.05;;;;;;;6.40;61.66;94844.88;4183607;28;20171;-70
2023/12/26 05:49:17;;;;;;;23.30;14.02;;;;;;;6.44;61.46;94844.47;4182814;28;20655;-70
2023/12/26 05:51:19;;;;;;;21.90;13.70;;;;;;;6.48;61.68;94842.47;4192992;28;20044;-70
2023/12/26 05:53:23;;;;;;;25.95;13.93;;;;;;;6.55;61.57;94844.38;4204859;28;20048;-72
2023/12/26 05:55:24;;;;;;;22.73;12.43;;;;;;;6.63;61.17;94848.94;4190402;28;20146;-69
2023/12/26 05:57:26;;;;;;;22.55;12.98;;;;;;;6.68;61.32;94851.16;4189332;28;20215;-68
2023/12/26 05:59:28;;;;;;;24.00;14.82;;;;;;;6.68;60.91;94851.16;4193930;28;20049;-69
2023/12/26 06:01:31;;;;;;;19.90;13.30;;;;;;;6.68;61.00;94851.97;4189755;28;20048;-69
2023/12/26 06:03:33;;;;;;;23.75;12.93;;;;;;;6.64;61.61;94853.19;4183434;28;20049;-70
2023/12/26 06:05:35;;;;;;;19.95;12.25;;;;;;;6.69;60.88;94850.19;4193925;28;20052;-69
2023/12/26 06:07:37;;;;;;;24.15;13.25;;;;;;;6.69;60.83;94855.41;4165680;28;20125;-68
2023/12/26 06:09:39;;;;;;;20.52;12.77;;;;;;;6.69;60.89;94858.00;4178981;28;20057;-69
2023/12/26 06:11:41;;;;;;;24.75;14.70;;;;;;;6.67;60.64;94858.16;4192041;28;20062;-69
2023/12/26 06:13:43;;;;;;;27.40;15.63;;;;;;;6.46;61.20;94860.78;4193870;28;20044;-70
2023/12/26 06:15:44;;;;;;;28.50;17.23;;;;;;;6.39;61.55;94864.03;4181496;28;20165;-70
2023/12/26 06:17:46;;;;;;;27.00;16.63;;;;;;;6.34;61.73;94867.03;4181603;28;20049;-70
2023/12/26 06:19:49;;;;;;;33.42;17.55;;;;;;;6.33;62.36;94868.00;4179514;28;20067;-68
2023/12/26 06:21:51;;;;;;;32.53;17.63;;;;;;;6.34;62.27;94865.25;4184192;28;20415;-70
2023/12/26 06:23:53;;;;;;;29.88;17.85;;;;;;;6.41;61.86;94872.53;4186965;28;20044;-69
2023/12/26 06:25:55;;;;;;;31.58;18.63;;;;;;;6.49;62.41;94867.50;4188975;28;20064;-71
2023/12/26 06:27:58;;;;;;;33.85;19.70;;;;;;;6.45;62.10;94869.53;4192528;28;20044;-69
2023/12/26 06:30:00;;;;;;;32.20;18.38;;;;;;;6.53;61.88;94874.94;4185989;28;20063;-69
2023/12/26 06:32:02;;;;;;;25.13;16.33;;;;;;;6.61;61.63;94863.06;4190620;28;20431;-69
2023/12/26 06:34:04;;;;;;;33.03;20.95;;;;;;;6.92;61.15;94861.22;4198293;28;20388;-70
2023/12/26 06:36:06;;;;;;;33.67;19.42;;;;;;;7.36;59.68;94874.78;4191315;28;20507;-70
2023/12/26 06:38:12;;;;;;;30.10;18.55;;;;;;;7.90;59.08;94868.22;4179391;28;20053;-71
2023/12/26 06:40:14;;;;;;;29.45;16.95;;;;;;;8.37;56.63;94872.69;4186977;28;20047;-70
2023/12/26 06:42:16;;;;;;;26.52;15.55;;;;;;;8.69;55.39;94867.13;4177866;28;20165;-70
2023/12/26 06:44:18;;;;;;;26.10;15.88;;;;;;;8.97;54.94;94869.72;4166470;28;20098;-69
2023/12/26 06:46:21;;;;;;;24.60;15.73;;;;;;;8.95;54.99;94866.47;4182964;28;20423;-69
2023/12/26 06:48:23;;;;;;;26.70;17.30;;;;;;;8.75;54.51;94870.94;4190504;28;20133;-69
2023/12/26 06:50:25;;;;;;;30.80;16.83;;;;;;;8.35;56.53;94879.81;4191141;28;20044;-69
2023/12/26 06:52:27;;;;;;;26.75;17.73;;;;;;;8.23;56.34;94875.72;4195310;28;20138;-68
2023/12/26 06:54:32;;;;;;;29.65;18.48;;;;;;;8.22;56.71;94869.69;4192027;28;20117;-70
2023/12/26 06:56:34;;;;;;;30.00;18.67;;;;;;;8.03;56.96;94880.97;4191044;28;20056;-69
2023/12/26 06:58:35;;;;;;;28.55;18.40;;;;;;;7.84;57.66;94883.59;4185980;28;20376;-70
2023/12/26 07:00:37;;;;;;;27.70;18.58;;;;;;;7.78;57.66;94880.56;4174085;28;20102;-68
2023/12/26 07:02:39;;;;;;;27.58;17.83;;;;;;;7.77;58.42;94891.97;4192366;28;20135;-70
2023/12/26 07:04:42;;;;;;;27.75;18.02;;;;;;;7.70;58.18;94890.88;4192194;28;20525;-68
2023/12/26 07:06:44;;;;;;;27.67;18.55;;;;;;;7.67;59.03;94891.13;4189717;28;20067;-67
2023/12/26 07:08:46;;;;;;;28.75;18.30;;;;;;;7.67;59.37;94893.72;4182336;28;20049;-70
2023/12/26 07:10:48;;;;;;;34.58;22.13;;;;;;;7.78;58.66;94893.59;4190396;28;20480;-70
2023/12/26 07:12:49;;;;;;;37.35;21.13;;;;;;;7.70;58.50;94898.69;4185573;28;20500;-69
2023/12/26 07:14:52;;;;;;;35.67;21.90;;;;;;;7.71;58.40;94907.34;4191318;28;20167;-71
2023/12/26 07:16:54;;;;;;;31.90;20.85;;;;;;;7.73;58.07;94895.81;4180413;28;20148;-71
2023/12/26 07:18:56;;;;;;;38.78;22.27;;;;;;;7.69;58.44;94902.25;4186363;28;20097;-71
2023/12/26 07:20:58;;;;;;;37.13;24.15;;;;;;;7.69;58.60;94904.03;4181161;28;20181;-70
2023/12/26 07:23:00;;;;;;;35.85;23.05;;;;;;;7.66;58.57;94901.69;4186768;28;20060;-69
2023/12/26 07:25:02;;;;;;;37.63;23.23;;;;;;;7.41;58.73;94908.25;4170883;28;20052;-70
2023/12/26 07:27:04;;;;;;;36.45;24.00;;;;;;;7.47;59.22;94907.72;4186425;28;20426;-70
2023/12/26 07:29:06;;;;;;;40.67;25.48;;;;;;;7.50;59.46;94903.03;4184242;28;20098;-71
2023/12/26 07:31:08;;;;;;;39.33;25.85;;;;;;;7.67;59.91;94903.34;4183984;28;20051;-71
2023/12/26 07:33:10;;;;;;;37.63;25.52;;;;;;;7.79;58.77;94908.31;4174764;28;20045;-71
2023/12/26 07:35:12;;;;;;;37.08;25.45;;;;;;;8.00;58.05;94909.94;4189910;28;20049;-69
2023/12/26 07:37:14;;;;;;;44.83;24.73;;;;;;;8.14;58.76;94904.31;4187400;28;20561;-69
2023/12/26 07:39:16;;;;;;;41.80;27.10;;;;;;;8.10;58.79;94900.31;4168125;28;20080;-70
2023/12/26 07:41:18;;;;;;;39.30;26.30;;;;;;;8.21;58.26;94908.00;4180608;28;20101;-70
2023/12/26 07:43:20;;;;;;;39.63;25.88;;;;;;;8.40;57.03;94898.50;4174113;28;20047;-69
2023/12/26 07:45:24;;;;;;;40.58;25.55;;;;;;;8.44;57.43;94904.28;4180160;28;20080;-71
2023/12/26 07:47:26;;;;;;;33.58;23.33;;;;;;;8.52;56.64;94899.19;4185951;28;20117;-71
2023/12/26 07:49:28;;;;;;;37.10;25.60;;;;;;;8.60;56.89;94894.06;4191176;28;20055;-72
2023/12/26 07:51:30;;;;;;;38.05;25.15;;;;;;;8.67;56.73;94904.75;4188918;28;20084;-72
2023/12/26 07:53:32;;;;;;;38.05;25.73;;;;;;;8.71;56.72;94903.53;4189801;28;20052;-71
2023/12/26 07:55:34;;;;;;;37.40;24.17;;;;;;;8.88;56.10;94899.34;4189829;28;20128;-70
2023/12/26 07:57:36;;;;;;;36.67;24.33;;;;;;;8.92;55.49;94898.91;4191410;28;20431;-70
2023/12/26 07:59:38;;;;;;;37.35;24.67;;;;;;;8.82;55.06;94898.13;4165721;28;20053;-71
2023/12/26 08:01:40;;;;;;;38.90;24.38;;;;;;;8.74;55.67;94898.03;4190965;28;20052;-71
2023/12/26 08:03:42;;;;;;;36.17;23.65;;;;;;;8.94;56.25;94898.75;4187631;28;20060;-69
2023/12/26 08:05:44;;;;;;;39.10;25.40;;;;;;;9.05;55.68;94906.41;4188331;28;20064;-72
2023/12/26 08:07:46;;;;;;;34.60;24.50;;;;;;;9.02;54.89;94912.75;4178391;28;20221;-69
2023/12/26 08:09:48;;;;;;;36.35;24.92;;;;;;;8.66;56.17;94911.78;4176699;28;20183;-70
2023/12/26 08:11:50;;;;;;;42.08;24.52;;;;;;;8.55;56.94;94904.13;4187290;28;20557;-69
2023/12/26 08:13:52;;;;;;;36.95;24.00;;;;;;;8.79;56.78;94898.41;4181368;28;20052;-70
2023/12/26 08:15:54;;;;;;;36.30;24.88;;;;;;;8.63;55.88;94906.03;4192059;28;20140;-71
2023/12/26 08:17:56;;;;;;;36.83;25.30;;;;;;;8.45;57.01;94911.97;4191271;28;20148;-69
2023/12/26 08:19:58;;;;;;;39.10;25.67;;;;;;;8.50;56.51;94899.34;4191976;28;20049;-68
2023/12/26 08:22:00;;;;;;;35.17;23.90;;;;;;;8.71;57.24;94898.28;4188811;28;20048;-71
2023/12/26 08:24:04;;;;;;;35.92;24.45;;;;;;;8.95;55.89;94900.44;4185147;28;20079;-69
2023/12/26 08:26:07;;;;;;;40.50;23.98;;;;;;;9.15;55.14;94901.97;4189401;28;20116;-70
2023/12/26 08:28:08;;;;;;;38.70;24.80;;;;;;;9.34;54.64;94903.66;4164635;28;20083;-68
2023/12/26 08:30:11;;;;;;;46.42;29.60;;;;;;;9.29;53.90;94908.53;4188619;28;20127;-71
2023/12/26 08:32:12;;;;;;;42.35;29.75;;;;;;;9.24;54.08;94900.28;4194076;28;20079;-71
2023/12/26 08:34:15;;;;;;;45.20;27.75;;;;;;;9.25;54.51;94901.94;4188805;28;20507;-70
2023/12/26 08:36:17;;;;;;;36.25;26.70;;;;;;;9.36;54.79;94911.38;4194819;28;20046;-70
2023/12/26 08:38:19;;;;;;;38.15;27.40;;;;;;;9.57;54.22;94911.94;4192197;28;20052;-71
2023/12/26 08:40:22;;;;;;;42.67;28.10;;;;;;;9.71;54.27;94909.78;4182849;28;20101;-72
2023/12/26 08:42:24;;;;;;;39.20;27.02;;;;;;;9.83;53.86;94906.78;4191438;28;20138;-69
2023/12/26 08:44:26;;;;;;;40.00;27.55;;;;;;;9.59;53.94;94909.13;4194013;28;20048;-70
2023/12/26 08:46:28;;;;;;;42.47;29.10;;;;;;;9.68;54.18;94910.91;4193188;28;20072;-69
2023/12/26 08:48:30;;;;;;;44.72;28.58;;;;;;;9.84;53.70;94910.22;4194894;28;20080;-67
2023/12/26 08:50:32;;;;;;;40.72;26.45;;;;;;;9.81;54.10;94902.69;4194010;28;20045;-71
2023/12/26 08:52:34;;;;;;;43.28;29.17;;;;;;;9.95;53.31;94899.53;4192238;28;20479;-71
2023/12/26 08:54:35;;;;;;;40.28;26.73;;;;;;;10.23;53.05;94895.00;4186423;28;20530;-70
2023/12/26 08:56:41;;;;;;;45.38;27.77;;;;;;;10.47;52.31;94901.44;4185814;28;20049;-69
2023/12/26 08:58:43;;;;;;;39.55;25.60;;;;;;;10.70;51.82;94895.69;4191532;28;20654;-70
2023/12/26 09:00:45;;;;;;;38.10;26.67;;;;;;;10.77;50.92;94894.91;4189482;28;20059;-71
2023/12/26 09:02:47;;;;;;;37.80;27.08;;;;;;;10.97;50.70;94898.13;4194087;28;20075;-70
2023/12/26 09:05:04;;;;;;;40.08;25.80;;;;;;;11.11;49.93;94890.66;4192839;28;20048;-71
2023/12/26 09:07:06;;;;;;;35.50;25.50;;;;;;;11.25;49.82;94892.69;4185989;28;20453;-69
2023/12/26 09:09:08;;;;;;;35.35;24.13;;;;;;;11.40;49.64;94885.84;4186125;28;20459;-68
2023/12/26 09:11:10;;;;;;;40.60;25.02;;;;;;;11.46;49.01;94881.75;4189019;28;20055;-72
2023/12/26 09:13:12;;;;;;;39.15;25.60;;;;;;;11.57;48.80;94891.97;4172487;28;20542;-70
2023/12/26 09:15:14;;;;;;;35.22;23.70;;;;;;;11.59;48.94;94883.91;4183420;28;20059;-71
2023/12/26 09:17:16;;;;;;;34.03;24.27;;;;;;;11.66;48.71;94882.31;4188356;28;20462;-72
2023/12/26 09:19:18;;;;;;;35.33;22.10;;;;;;;11.68;48.76;94878.53;4191171;28;20064;-70
2023/12/26 09:21:20;;;;;;;38.63;22.55;;;;;;;11.77;48.23;94881.19;4183496;28;20057;-71
2023/12/26 09:23:22;;;;;;;34.05;21.55;;;;;;;11.85;47.94;94868.88;4190488;28;20436;-69
2023/12/26 09:25:24;;;;;;;30.25;19.83;;;;;;;11.83;47.29;94864.75;4188494;28;20151;-69
2023/12/26 09:27:26;;;;;;;28.27;19.02;;;;;;;11.96;47.37;94857.28;4192813;28;20045;-73